Time;durP1;ratioP1;P1;durP2;ratioP2;P2;SDS_P1;SDS_P2;PMS_P1;PMS_P2;Temp;Humidity;BMP_temperature;BMP_pressure;BME280_temperature;BME280_humidity;BME280_pressure;Samples;Min_cycle;Max_cycle;Signal;HPM_P1;HPM_P2
2023/12/10 00:00:30;;;;;;;20.75;5.93;;;;;;;;;;4953217;29;20122;-94
2023/12/10 00:02:56;;;;;;;19.63;6.00;;;;;;;;;;4953206;28;20103;-92
2023/12/10 00:05:22;;;;;;;14.10;4.80;;;;;;;;;;4921370;29;20540;-93
2023/12/10 00:07:48;;;;;;;19.10;4.57;;;;;;;;;;4935263;29;20043;-94
2023/12/10 00:10:14;;;;;;;23.45;4.97;;;;;;;;;;4953082;28;20039;-96
2023/12/10 00:12:40;;;;;;;22.58;5.28;;;;;;;;;;4953148;29;20527;-95
2023/12/10 00:15:07;;;;;;;18.63;4.28;;;;;;;;;;4937233;29;20091;-93
2023/12/10 00:17:33;;;;;;;23.08;5.22;;;;;;;;;;4938927;28;20043;-94
2023/12/10 00:19:59;;;;;;;17.02;5.30;;;;;;;;;;4925280;29;20107;-95
2023/12/10 00:22:25;;;;;;;12.95;4.85;;;;;;;;;;4937634;29;20039;-92
2023/12/10 00:24:51;;;;;;;20.83;5.63;;;;;;;;;;4953171;29;20492;-94
2023/12/10 00:27:17;;;;;;;29.00;4.75;;;;;;;;;;4942864;28;20043;-94
2023/12/10 00:29:43;;;;;;;16.90;4.60;;;;;;;;;;4976739;28;20054;-91
2023/12/10 00:32:09;;;;;;;21.90;5.95;;;;;;;;;;4944280;28;20042;-92
2023/12/10 00:34:35;;;;;;;21.63;5.68;;;;;;;;;;4959700;28;20039;-95
2023/12/10 00:37:01;;;;;;;29.08;5.30;;;;;;;;;;4943829;28;20495;-94
2023/12/10 00:39:28;;;;;;;15.00;4.75;;;;;;;;;;4944031;28;20073;-94
2023/12/10 00:41:54;;;;;;;26.75;5.15;;;;;;;;;;4944286;28;20103;-91
2023/12/10 00:44:20;;;;;;;25.48;6.13;;;;;;;;;;4954469;28;20039;-94
2023/12/10 00:46:46;;;;;;;16.65;4.43;;;;;;;;;;4956483;29;20488;-95
2023/12/10 00:49:13;;;;;;;21.15;6.07;;;;;;;;;;4959694;28;20042;-94
2023/12/10 00:51:39;;;;;;;27.27;5.00;;;;;;;;;;4960051;28;20515;-94
2023/12/10 00:54:06;;;;;;;14.75;3.80;;;;;;;;;;4959420;28;20396;-94
2023/12/10 00:56:33;;;;;;;16.48;4.68;;;;;;;;;;4943807;28;20123;-92
2023/12/10 00:58:59;;;;;;;25.63;5.13;;;;;;;;;;4959675;28;20038;-95
2023/12/10 01:01:25;;;;;;;17.80;4.25;;;;;;;;;;4934168;28;20522;-92
2023/12/10 01:03:52;;;;;;;14.70;3.30;;;;;;;;;;4959363;28;20070;-93
2023/12/10 01:06:19;;;;;;;16.45;5.30;;;;;;;;;;4959868;28;20047;-95
2023/12/10 01:08:45;;;;;;;16.63;4.60;;;;;;;;;;4959569;28;20043;-95
2023/12/10 01:11:11;;;;;;;13.02;4.55;;;;;;;;;;4959473;28;20501;-91
2023/12/10 01:13:37;;;;;;;22.17;5.60;;;;;;;;;;4959993;28;20114;-94
2023/12/10 01:16:04;;;;;;;13.90;3.90;;;;;;;;;;4962430;28;20053;-92
2023/12/10 01:18:32;;;;;;;15.25;4.50;;;;;;;;;;4967893;28;20054;-96
2023/12/10 01:20:59;;;;;;;17.92;5.50;;;;;;;;;;4965512;28;20101;-94
2023/12/10 01:23:25;;;;;;;20.25;4.57;;;;;;;;;;4965508;28;20043;-94
2023/12/10 01:25:51;;;;;;;25.98;5.00;;;;;;;;;;4947940;28;20551;-95
2023/12/10 01:28:17;;;;;;;20.10;5.05;;;;;;;;;;4976715;28;20042;-94
2023/12/10 01:30:43;;;;;;;16.30;5.05;;;;;;;;;;4959423;28;20406;-95
2023/12/10 01:33:10;;;;;;;15.82;3.80;;;;;;;;;;4942895;28;20059;-95
2023/12/10 01:35:36;;;;;;;31.23;5.53;;;;;;;;;;4958081;28;20070;-93
2023/12/10 01:38:02;;;;;;;18.95;6.20;;;;;;;;;;4942780;28;20082;-96
2023/12/10 01:40:28;;;;;;;13.45;4.22;;;;;;;;;;4958750;28;20137;-95
2023/12/10 01:42:55;;;;;;;24.90;5.55;;;;;;;;;;4943779;28;20047;-94
2023/12/10 01:45:21;;;;;;;17.27;5.10;;;;;;;;;;4958928;28;20046;-96
2023/12/10 01:47:49;;;;;;;18.70;4.07;;;;;;;;;;4958827;28;20062;-94
2023/12/10 01:50:16;;;;;;;20.85;5.35;;;;;;;;;;4958667;28;20400;-94
2023/12/10 01:52:47;;;;;;;18.85;4.95;;;;;;;;;;4931017;29;20043;-95
2023/12/10 01:55:14;;;;;;;18.48;4.78;;;;;;;;;;4939455;29;20047;-95
2023/12/10 01:57:41;;;;;;;26.50;5.22;;;;;;;;;;4939788;29;20468;-92
2023/12/10 02:00:07;;;;;;;12.80;3.97;;;;;;;;;;4939357;29;20393;-94
2023/12/10 02:02:34;;;;;;;29.00;4.85;;;;;;;;;;4952354;28;20046;-95
2023/12/10 02:05:07;;;;;;;21.35;5.10;;;;;;;;;;4958197;28;20039;-96
2023/12/10 02:07:34;;;;;;;15.25;4.28;;;;;;;;;;4958844;28;20125;-95
2023/12/10 02:10:00;;;;;;;14.77;4.32;;;;;;;;;;4958939;28;20039;-93
2023/12/10 02:12:30;;;;;;;22.58;5.03;;;;;;;;;;4958181;28;20046;-94
2023/12/10 02:14:56;;;;;;;16.08;4.00;;;;;;;;;;4942828;28;20038;-93
2023/12/10 02:17:22;;;;;;;12.02;4.07;;;;;;;;;;4958385;28;20050;-95
2023/12/10 02:19:49;;;;;;;20.70;4.63;;;;;;;;;;4947637;29;20051;-94
2023/12/10 02:22:18;;;;;;;24.05;5.15;;;;;;;;;;4939088;29;20059;-95
2023/12/10 02:24:47;;;;;;;17.80;5.32;;;;;;;;;;4939249;29;20047;-95
2023/12/10 02:27:14;;;;;;;17.48;5.57;;;;;;;;;;4952466;28;20050;-91
2023/12/10 02:29:40;;;;;;;12.90;4.28;;;;;;;;;;4945795;28;20086;-95
2023/12/10 02:32:06;;;;;;;18.45;3.63;;;;;;;;;;4938991;29;20048;-92
2023/12/10 02:34:32;;;;;;;18.08;4.53;;;;;;;;;;4939658;29;20046;-95
2023/12/10 02:36:58;;;;;;;15.73;4.72;;;;;;;;;;4939349;29;20138;-95
2023/12/10 02:39:24;;;;;;;17.70;4.53;;;;;;;;;;4923950;29;20039;-91
2023/12/10 02:41:50;;;;;;;14.93;3.75;;;;;;;;;;4938742;29;20094;-95
2023/12/10 02:44:16;;;;;;;18.98;3.92;;;;;;;;;;4941706;28;20051;-95
2023/12/10 02:46:48;;;;;;;17.33;3.83;;;;;;;;;;4957991;28;20045;-94
2023/12/10 02:49:14;;;;;;;11.93;4.03;;;;;;;;;;4957104;28;20119;-94
2023/12/10 02:51:40;;;;;;;10.65;3.30;;;;;;;;;;4941556;28;20055;-95
2023/12/10 02:54:06;;;;;;;14.93;3.72;;;;;;;;;;4941321;28;20062;-93
2023/12/10 02:56:32;;;;;;;20.42;5.95;;;;;;;;;;4957089;28;20578;-96
2023/12/10 02:58:59;;;;;;;16.92;4.20;;;;;;;;;;4942401;28;20109;-96
2023/12/10 03:01:25;;;;;;;16.75;4.18;;;;;;;;;;4957737;28;20050;-93
2023/12/10 03:03:51;;;;;;;17.10;3.17;;;;;;;;;;4957966;28;20046;-94
2023/12/10 03:06:17;;;;;;;13.60;4.22;;;;;;;;;;4957767;28;20058;-93
2023/12/10 03:08:43;;;;;;;18.05;3.85;;;;;;;;;;4939132;29;20050;-94
2023/12/10 03:11:09;;;;;;;20.88;4.85;;;;;;;;;;4955139;28;20050;-95
2023/12/10 03:13:35;;;;;;;16.77;3.95;;;;;;;;;;4977224;28;20129;-94
2023/12/10 03:16:01;;;;;;;19.55;3.75;;;;;;;;;;4976459;28;20046;-94
2023/12/10 03:18:28;;;;;;;15.30;3.20;;;;;;;;;;4959908;28;20049;-93
2023/12/10 03:20:54;;;;;;;13.88;3.97;;;;;;;;;;4949432;29;20047;-94
2023/12/10 03:23:20;;;;;;;14.80;3.45;;;;;;;;;;4969807;28;20519;-93
2023/12/10 03:25:46;;;;;;;7.63;2.90;;;;;;;;;;4938100;29;20054;-95
2023/12/10 03:28:12;;;;;;;12.98;3.20;;;;;;;;;;4953675;28;20038;-94
2023/12/10 03:30:38;;;;;;;8.00;2.78;;;;;;;;;;4957701;28;20046;-94
2023/12/10 03:33:04;;;;;;;8.23;2.75;;;;;;;;;;4942442;28;20518;-95
2023/12/10 03:35:30;;;;;;;9.25;2.30;;;;;;;;;;4957578;28;20062;-94
2023/12/10 03:37:57;;;;;;;11.30;2.25;;;;;;;;;;4945147;29;20512;-95
2023/12/10 03:40:23;;;;;;;11.77;3.78;;;;;;;;;;4940792;28;20054;-95
2023/12/10 03:42:49;;;;;;;10.80;3.28;;;;;;;;;;4925676;28;20047;-94
2023/12/10 03:45:15;;;;;;;15.43;2.33;;;;;;;;;;4957030;28;20416;-95
2023/12/10 03:47:46;;;;;;;10.93;2.60;;;;;;;;;;4941749;29;20361;-95
2023/12/10 03:50:13;;;;;;;15.05;2.70;;;;;;;;;;4937740;29;20047;-94
2023/12/10 03:52:39;;;;;;;6.35;2.50;;;;;;;;;;4937969;29;20370;-94
2023/12/10 03:55:05;;;;;;;13.60;1.80;;;;;;;;;;4953993;28;20103;-95
2023/12/10 03:57:31;;;;;;;10.55;3.10;;;;;;;;;;4944617;28;20484;-94
2023/12/10 03:59:57;;;;;;;9.23;1.98;;;;;;;;;;4956839;28;20042;-96
2023/12/10 04:02:24;;;;;;;8.40;2.85;;;;;;;;;;4958968;28;20043;-94
2023/12/10 04:04:50;;;;;;;10.85;2.15;;;;;;;;;;4960654;28;20035;-95
2023/12/10 04:07:16;;;;;;;6.68;2.30;;;;;;;;;;4945080;28;20047;-96
2023/12/10 04:09:42;;;;;;;7.03;2.08;;;;;;;;;;4960900;28;20042;-94
2023/12/10 04:12:08;;;;;;;12.30;3.35;;;;;;;;;;4960860;28;20047;-94
2023/12/10 04:14:35;;;;;;;9.88;2.85;;;;;;;;;;4960764;28;20404;-94
2023/12/10 04:17:01;;;;;;;7.18;2.30;;;;;;;;;;4960660;28;20049;-95
2023/12/10 04:19:27;;;;;;;16.60;3.50;;;;;;;;;;4960526;28;20483;-94
2023/12/10 04:21:53;;;;;;;6.35;2.90;;;;;;;;;;4960807;28;20192;-95
2023/12/10 04:24:20;;;;;;;4.82;2.05;;;;;;;;;;4960822;28;20049;-96
2023/12/10 04:26:46;;;;;;;8.85;2.75;;;;;;;;;;4944523;28;20058;-95
2023/12/10 04:29:12;;;;;;;9.95;3.28;;;;;;;;;;4944390;28;20054;-96
2023/12/10 04:31:38;;;;;;;14.23;2.00;;;;;;;;;;4959941;28;20039;-96
2023/12/10 04:34:04;;;;;;;6.45;2.70;;;;;;;;;;4960032;28;20053;-95
2023/12/10 04:36:31;;;;;;;11.20;2.75;;;;;;;;;;4960311;28;20479;-95
2023/12/10 04:38:57;;;;;;;17.75;4.07;;;;;;;;;;4944572;28;20050;-94
2023/12/10 04:41:23;;;;;;;9.48;2.90;;;;;;;;;;4944067;28;20050;-94
2023/12/10 04:43:49;;;;;;;15.13;3.03;;;;;;;;;;4960146;28;20078;-96
2023/12/10 04:46:18;;;;;;;9.32;3.00;;;;;;;;;;4950092;29;20155;-96
2023/12/10 04:48:44;;;;;;;7.70;4.20;;;;;;;;;;4948972;29;20054;-95
2023/12/10 04:51:11;;;;;;;13.90;2.95;;;;;;;;;;4957295;29;20047;-94
2023/12/10 04:53:38;;;;;;;5.10;1.80;;;;;;;;;;4941390;28;20059;-95
2023/12/10 04:56:04;;;;;;;11.52;3.17;;;;;;;;;;4949590;28;20484;-95
2023/12/10 04:58:30;;;;;;;10.15;2.88;;;;;;;;;;4960831;28;20043;-94
2023/12/10 05:00:56;;;;;;;6.25;2.33;;;;;;;;;;4960052;28;20042;-96
2023/12/10 05:03:22;;;;;;;8.38;2.03;;;;;;;;;;4960023;28;20062;-94
2023/12/10 05:05:48;;;;;;;9.13;2.85;;;;;;;;;;4938455;28;20047;-94
2023/12/10 05:08:14;;;;;;;10.30;3.47;;;;;;;;;;4943475;28;20050;-95
2023/12/10 05:10:40;;;;;;;4.32;1.92;;;;;;;;;;4960194;28;20487;-95
2023/12/10 05:13:06;;;;;;;13.20;2.55;;;;;;;;;;4959975;28;20073;-95
2023/12/10 05:18:17;;;;;;;6.97;2.42;;;;;;;;;;5118405;23;20393;-95
2023/12/10 05:23:32;;;;;;;5.35;1.65;;;;;;;;;;5167196;22;20049;-95
2023/12/10 05:26:20;;;;;;;6.07;1.38;;;;;;;;;;5104639;23;20084;-94
2023/12/10 05:28:57;;;;;;;5.13;1.58;;;;;;;;;;5109916;22;20106;-95
2023/12/10 05:31:49;;;;;;;5.57;1.65;;;;;;;;;;5083219;28;20040;-92
2023/12/10 05:34:28;;;;;;;10.30;1.83;;;;;;;;;;5092411;22;20057;-91
2023/12/10 05:36:57;;;;;;;5.85;2.10;;;;;;;;;;5050389;28;20071;-91
2023/12/10 05:39:26;;;;;;;6.72;1.70;;;;;;;;;;5035445;28;20053;-90
2023/12/10 05:41:53;;;;;;;8.27;1.90;;;;;;;;;;5050640;28;20049;-91
2023/12/10 05:47:31;;;;;;;3.55;2.20;;;;;;;;;;5065864;28;20049;-90
2023/12/10 05:50:16;;;;;;;10.35;1.80;;;;;;;;;;5053163;28;20059;-90
2023/12/10 05:52:45;;;;;;;3.65;1.42;;;;;;;;;;5050841;28;20053;-89
2023/12/10 05:55:31;;;;;;;11.82;1.52;;;;;;;;;;5062651;28;20060;-88
2023/12/10 05:58:08;;;;;;;5.75;1.80;;;;;;;;;;5050025;28;20037;-89
2023/12/10 06:00:47;;;;;;;6.95;2.15;;;;;;;;;;5048854;28;20038;-88
2023/12/10 06:03:13;;;;;;;7.38;1.60;;;;;;;;;;5047296;28;20038;-89
2023/12/10 06:05:56;;;;;;;10.65;1.88;;;;;;;;;;5055953;28;20044;-88
2023/12/10 06:08:31;;;;;;;7.80;2.58;;;;;;;;;;5047804;28;20041;-93
2023/12/10 06:11:05;;;;;;;13.80;2.80;;;;;;;;;;5030633;28;20041;-94
2023/12/10 06:13:32;;;;;;;11.73;3.10;;;;;;;;;;5020248;28;20076;-92
2023/12/10 06:16:17;;;;;;;8.20;2.70;;;;;;;;;;5012296;28;20045;-92
2023/12/10 06:19:06;;;;;;;8.60;2.17;;;;;;;;;;5082650;28;20117;-91
2023/12/10 06:24:31;;;;;;;18.10;3.13;;;;;;;;;;5183198;22;20040;-92
2023/12/10 06:26:59;;;;;;;15.65;3.47;;;;;;;;;;5052797;28;20107;-92
2023/12/10 06:29:41;;;;;;;9.65;2.55;;;;;;;;;;5064127;28;20053;-93
2023/12/10 06:32:16;;;;;;;14.55;3.78;;;;;;;;;;5069351;22;20051;-92
2023/12/10 06:35:22;;;;;;;11.50;3.58;;;;;;;;;;5031014;28;20056;-91
2023/12/10 06:38:27;;;;;;;14.30;3.20;;;;;;;;;;4990105;28;20054;-91
2023/12/10 06:40:57;;;;;;;15.65;2.90;;;;;;;;;;4950470;29;20624;-92
2023/12/10 06:43:27;;;;;;;16.67;3.85;;;;;;;;;;4981016;22;20055;-91
2023/12/10 06:46:13;;;;;;;10.85;3.35;;;;;;;;;;4998696;28;20056;-91
2023/12/10 06:48:45;;;;;;;19.70;5.28;;;;;;;;;;5092345;23;20050;-91
2023/12/10 06:51:33;;;;;;;14.25;3.92;;;;;;;;;;5051372;28;20056;-92
2023/12/10 06:54:10;;;;;;;16.40;3.67;;;;;;;;;;5049397;28;20049;-91
2023/12/10 06:56:46;;;;;;;8.75;2.40;;;;;;;;;;5018458;28;20088;-92
2023/12/10 06:59:47;;;;;;;12.40;3.35;;;;;;;;;;5214094;22;20080;-91
2023/12/10 07:02:41;;;;;;;4.35;1.88;;;;;;;;;;5027428;28;20070;-92
2023/12/10 07:05:23;;;;;;;10.68;2.42;;;;;;;;;;5072305;22;20055;-91
2023/12/10 07:08:16;;;;;;;9.25;2.20;;;;;;;;;;5037389;28;20079;-91
2023/12/10 07:11:14;;;;;;;9.43;3.35;;;;;;;;;;5007733;28;20053;-92
2023/12/10 07:16:28;;;;;;;8.20;2.47;;;;;;;;;;5009606;28;20054;-92
2023/12/10 07:19:25;;;;;;;12.00;2.22;;;;;;;;;;5061211;23;20053;-91
2023/12/10 07:22:18;;;;;;;12.13;2.92;;;;;;;;;;5044908;22;20058;-92
2023/12/10 07:25:13;;;;;;;7.22;2.30;;;;;;;;;;5043402;22;20080;-91
2023/12/10 07:27:45;;;;;;;5.20;2.00;;;;;;;;;;5012652;22;20090;-91
2023/12/10 07:33:10;;;;;;;8.07;1.67;;;;;;;;;;5206633;22;20061;-90
2023/12/10 07:35:46;;;;;;;11.77;3.03;;;;;;;;;;5053826;22;20040;-92
2023/12/10 07:38:43;;;;;;;5.47;2.05;;;;;;;;;;5057030;28;20059;-91
2023/12/10 07:41:13;;;;;;;6.30;2.00;;;;;;;;;;5011767;28;20048;-91
2023/12/10 07:44:06;;;;;;;11.85;2.75;;;;;;;;;;5037741;28;20543;-93
2023/12/10 07:46:32;;;;;;;13.18;3.00;;;;;;;;;;5001617;28;20221;-94
2023/12/10 07:49:04;;;;;;;10.35;3.50;;;;;;;;;;4998526;28;20046;-92
2023/12/10 07:51:36;;;;;;;17.52;2.63;;;;;;;;;;5002555;28;20049;-93
2023/12/10 07:54:03;;;;;;;10.45;2.67;;;;;;;;;;5017091;28;20046;-94
2023/12/10 07:57:04;;;;;;;7.15;2.63;;;;;;;;;;5063822;22;20041;-94
2023/12/10 07:59:50;;;;;;;6.32;1.75;;;;;;;;;;4989827;22;20052;-91
2023/12/10 08:05:58;;;;;;;7.85;2.28;;;;;;;;;;5056909;28;20034;-91
2023/12/10 08:09:04;;;;;;;5.03;2.00;;;;;;;;;;5076979;22;20064;-92
2023/12/10 08:12:00;;;;;;;14.15;2.13;;;;;;;;;;5089206;22;20036;-91
2023/12/10 08:14:50;;;;;;;8.05;1.52;;;;;;;;;;5100076;22;20109;-91
2023/12/10 08:17:40;;;;;;;2.75;1.73;;;;;;;;;;5090809;22;20048;-91
2023/12/10 08:20:40;;;;;;;12.60;2.72;;;;;;;;;;5083039;28;20055;-92
2023/12/10 08:26:43;;;;;;;3.97;1.92;;;;;;;;;;5147653;22;20029;-91
2023/12/10 08:29:41;;;;;;;12.27;2.75;;;;;;;;;;5170946;22;20031;-91
2023/12/10 08:36:18;;;;;;;6.00;2.60;;;;;;;;;;5114917;22;20053;-92
2023/12/10 08:38:48;;;;;;;11.23;2.22;;;;;;;;;;5058386;28;20064;-92
2023/12/10 08:41:56;;;;;;;6.13;1.58;;;;;;;;;;5077573;28;20049;-92
2023/12/10 08:47:12;;;;;;;17.50;3.03;;;8.60;99.90;;;;;;5596712;22;20034;-90
2023/12/10 08:50:31;;;;;;;15.50;3.30;;;;;;;;;;5059779;28;20041;-91
2023/12/10 08:53:39;;;;;;;19.05;3.80;;;;;;;;;;5016528;28;20042;-91
2023/12/10 08:56:54;;;;;;;13.88;3.92;;;;;;;;;;4980101;28;20055;-91
2023/12/10 09:05:24;;;;;;;14.63;3.90;;;;;;;;;;5121981;23;20117;-91
2023/12/10 09:18:55;;;;;;;16.55;4.07;;;;;;;;;;3773068;23;20054;-92
2023/12/10 09:22:00;;;;;;;14.85;3.45;;;;;;;;;;5049835;28;20029;-91
2023/12/10 09:24:58;;;;;;;16.05;3.13;;;;;;;;;;5043741;28;20056;-92
2023/12/10 09:37:10;;;;;;;8.95;1.98;;;;;;;;;;5057947;28;20075;-91
2023/12/10 09:40:24;;;;;;;13.57;2.00;;;;;;;;;;4996103;28;20087;-92
2023/12/10 09:46:24;;;;;;;15.70;3.17;;;;;;;;;;5193037;23;20043;-92
2023/12/10 09:49:13;;;;;;;19.45;3.20;;;;;;;;;;4951040;28;20074;-92
2023/12/10 09:52:44;;;;;;;9.57;3.45;;;8.50;99.90;;;;;;4949411;28;20030;-91
2023/12/10 09:58:24;;;;;;;7.53;3.17;;;;;;;;;;5021788;23;20054;-93
2023/12/10 10:01:25;;;;;;;13.75;4.05;;;;;;;;;;4981097;23;20078;-91
2023/12/10 10:05:16;;;;;;;22.65;6.05;;;8.80;99.90;;;;;;4936990;28;20130;-94
2023/12/10 10:07:57;;;;;;;21.92;3.85;;;;;;;;;;4940728;23;20052;-92
2023/12/10 10:10:30;;;;;;;10.60;3.10;;;;;;;;;;5003179;23;20058;-92
2023/12/10 10:13:38;;;;;;;11.48;2.58;;;;;;;;;;4920221;29;20044;-92
2023/12/10 10:16:24;;;;;;;13.48;2.97;;;;;;;;;;4902035;29;20052;-93
2023/12/10 10:19:11;;;;;;;14.35;3.72;;;;;;;;;;4896199;29;20036;-92
2023/12/10 10:22:24;;;;;;;13.32;2.85;;;;;;;;;;5098126;23;20051;-93
2023/12/10 10:25:45;;;;;;;14.38;3.55;;;;;;;;;;5326253;23;20020;-92
2023/12/10 10:32:01;;;;;;;30.13;4.93;;;;;;;;;;5155642;23;21119;-93
2023/12/10 10:53:28;;;;;;;18.60;4.70;;;8.40;99.90;;;;;;868555;23;20479;-90
2023/12/10 10:56:42;;;;;;;28.52;7.13;;;;;;;;;;5011986;23;20053;-92
2023/12/10 11:00:05;;;;;;;22.95;5.97;;;;;;;;;;4958430;23;20066;-92
2023/12/10 11:03:23;;;;;;;24.25;4.40;;;;;;;;;;4957808;28;20120;-92
2023/12/10 11:06:14;;;;;;;31.05;5.95;;;;;;;;;;4897444;29;20082;-92
2023/12/10 11:09:20;;;;;;;33.97;8.43;;;;;;;;;;4955300;28;20058;-92
2023/12/10 11:12:33;;;;;;;25.95;6.45;;;;;;;;;;5019552;23;20137;-92
2023/12/10 11:15:43;;;;;;;23.98;5.05;;;;;;;;;;5091448;23;20050;-92
2023/12/10 11:21:43;;;;;;;22.05;4.82;;;;;;;;;;5004013;23;20117;-92
2023/12/10 11:24:44;;;;;;;37.30;7.32;;;;;;;;;;4875820;29;20080;-92
2023/12/10 11:27:25;;;;;;;22.10;4.77;;;;;;;;;;4917252;29;20108;-91
2023/12/10 11:33:11;;;;;;;25.83;6.00;;;;;;;;;;4999920;23;20054;-91
2023/12/10 11:36:20;;;;;;;22.50;8.00;;;;;;;;;;4970098;28;20445;-92
2023/12/10 11:39:14;;;;;;;30.73;4.93;;;;;;;;;;4972283;28;20086;-92
2023/12/10 11:42:13;;;;;;;26.25;4.65;;;;;;;;;;5060874;23;20087;-91
2023/12/10 11:45:15;;;;;;;26.77;6.35;;;;;;;;;;5001532;23;20079;-92
2023/12/10 11:48:05;;;;;;;13.27;3.05;;;;;;;;;;4970723;28;20049;-92
2023/12/10 11:53:34;;;;;;;30.65;6.10;;;;;;;;;;5037357;23;20055;-92
2023/12/10 11:56:23;;;;;;;27.65;6.20;;;;;;;;;;4975816;23;20123;-92
2023/12/10 12:04:48;;;;;;;23.77;6.13;;;;;;;;;;4993995;28;20102;-91
2023/12/10 12:07:44;;;;;;;26.52;6.13;;;;;;;;;;4992867;28;20066;-92
2023/12/10 12:10:22;;;;;;;22.13;5.70;;;;;;;;;;4981417;28;20043;-91
2023/12/10 12:13:22;;;;;;;19.77;4.72;;;;;;;;;;4956896;29;20062;-91
2023/12/10 12:18:31;;;;;;;29.08;5.97;;;;;;;;;;4995861;28;20039;-91
2023/12/10 12:21:06;;;;;;;35.20;8.27;;;;;;;;;;4976753;28;20045;-90
2023/12/10 12:30:10;;;;;;;25.88;8.02;;;;;;;;;;4964652;28;20052;-91
2023/12/10 12:36:22;;;;;;;29.13;6.90;;;;;;;;;;5145327;23;20052;-91
2023/12/10 12:47:20;;;;;;;16.95;5.97;;;;;;;;;;4226424;27;20114;-90
2023/12/10 12:50:10;;;;;;;28.25;7.65;;;;;;;;;;4963693;23;20074;-91
2023/12/10 12:52:50;;;;;;;22.10;6.07;;;;;;;;;;4910593;29;20053;-90
2023/12/10 12:55:18;;;;;;;24.95;7.15;;;;;;;;;;4875683;29;20045;-90
2023/12/10 13:00:23;;;;;;;28.70;6.03;;;;;;;;;;4211510;26;20110;-90
2023/12/10 13:03:01;;;;;;;27.13;5.82;;;;;;;;;;4929482;29;20048;-90
2023/12/10 13:08:09;;;;;;;27.90;6.00;;;;;;;;;;5003549;23;20059;-91
2023/12/10 13:10:57;;;;;;;;;;;8.80;99.90;;;;;;4946335;29;20054;-91
2023/12/10 13:13:26;;;;;;;28.95;5.57;;;;;;;;;;4983530;28;19906;-90
2023/12/10 13:15:55;;;;;;;24.73;6.50;;;;;;;;;;4965434;28;20090;-90
2023/12/10 13:18:24;;;;;;;22.63;7.72;;;;;;;;;;4970347;28;20050;-90
2023/12/10 13:20:54;;;;;;;23.95;5.43;;;;;;;;;;4987414;28;20098;-90
2023/12/10 13:23:30;;;;;;;27.13;6.22;;;;;;;;;;4987670;28;20043;-90
2023/12/10 13:26:29;;;;;;;16.30;5.13;;;;;;;;;;4988502;23;20074;-90
2023/12/10 13:28:58;;;;;;;26.23;4.75;;;;;;;;;;4942035;29;20052;-93
2023/12/10 13:31:24;;;;;;;21.25;5.78;;;;;;;;;;4919155;29;20146;-91
2023/12/10 13:33:54;;;;;;;23.90;5.38;;;;;;;;;;4950712;29;20134;-90
2023/12/10 13:36:24;;;;;;;24.50;6.50;;;;;;;;;;4949672;29;20058;-89
2023/12/10 13:38:58;;;;;;;15.23;4.97;;;;;;;;;;4967083;28;20435;-90
2023/12/10 13:41:25;;;;;;;21.15;3.90;;;;;;;;;;4948011;29;20103;-89
2023/12/10 13:43:51;;;;;;;19.70;4.82;;;;;;;;;;4933696;29;20127;-90
2023/12/10 13:46:17;;;;;;;21.58;4.18;;;;;;;;;;4947903;29;20058;-91
2023/12/10 13:48:45;;;;;;;21.25;4.63;;;;;;;;;;4930755;29;20548;-90
2023/12/10 13:51:11;;;;;;;25.10;5.03;;;;;;;;;;4930178;29;20091;-90
2023/12/10 13:53:37;;;;;;;18.45;4.18;;;;;;;;;;4946132;29;20136;-92
2023/12/10 13:56:04;;;;;;;22.52;4.30;;;;;;;;;;4931603;29;20056;-90
2023/12/10 13:58:30;;;;;;;17.23;5.40;;;;;;;;;;4931586;29;20047;-90
2023/12/10 14:01:00;;;;;;;19.42;4.63;;;;;;;;;;4965570;28;20097;-96
2023/12/10 14:03:26;;;;;;;19.58;3.55;;;;;;;;;;4935679;29;20047;-96
2023/12/10 14:05:53;;;;;;;10.05;3.50;;;;;;;;;;4921296;29;20048;-94
2023/12/10 14:08:19;;;;;;;12.60;2.88;;;;;;;;;;4918064;29;20071;-93
2023/12/10 14:10:45;;;;;;;16.55;3.58;;;;;;;;;;4910989;29;20051;-93
2023/12/10 14:13:11;;;;;;;8.80;3.35;;;;;;;;;;4945519;28;20050;-95
2023/12/10 14:15:37;;;;;;;15.90;4.55;;;;;;;;;;4948233;28;20110;-91
2023/12/10 14:18:03;;;;;;;14.23;3.97;;;;;;;;;;4943454;29;20519;-93
2023/12/10 14:20:29;;;;;;;12.10;3.30;;;;;;;;;;4922075;29;20080;-93
2023/12/10 14:22:56;;;;;;;26.17;6.03;;;;;;;;;;4901387;29;20486;-92
2023/12/10 14:25:22;;;;;;;19.10;4.13;;;;;;;;;;4900371;29;20104;-91
2023/12/10 14:27:48;;;;;;;14.52;4.07;;;;;;;;;;4929790;29;20098;-94
2023/12/10 14:30:14;;;;;;;17.38;3.80;;;;;;;;;;4929875;29;20383;-92
2023/12/10 14:32:41;;;;;;;10.93;4.22;;;;;;;;;;4929666;29;20051;-92
2023/12/10 14:35:07;;;;;;;12.38;3.97;;;;;;;;;;4930886;29;20048;-90
2023/12/10 14:37:33;;;;;;;22.67;4.35;;;;;;;;;;4882440;29;20124;-91
2023/12/10 14:39:59;;;;;;;37.05;4.38;;;;;;;;;;4903873;29;20124;-90
2023/12/10 14:42:25;;;;;;;15.23;3.97;;;;;;;;;;4913340;29;20564;-94
2023/12/10 14:44:51;;;;;;;9.13;3.92;;;;;;;;;;4916787;29;20040;-92
2023/12/10 14:47:18;;;;;;;14.65;4.72;;;;;;;;;;4917338;29;20328;-95
2023/12/10 14:49:44;;;;;;;16.48;3.20;;;;;;;;;;4924978;29;20080;-93
2023/12/10 14:52:10;;;;;;;16.23;3.47;;;;;;;;;;4920067;29;20054;-94
2023/12/10 14:54:36;;;;;;;13.98;3.17;;;;;;;;;;4920101;29;20047;-94
2023/12/10 14:57:02;;;;;;;18.02;4.05;;;;;;;;;;4904025;29;20050;-91
2023/12/10 14:59:28;;;;;;;16.13;3.38;;;;;;;;;;4904434;29;20051;-94
2023/12/10 15:01:54;;;;;;;15.45;4.63;;;;;;;;;;4907646;29;20051;-90
2023/12/10 15:04:20;;;;;;;18.40;3.67;;;;;;;;;;4916498;29;20075;-93
2023/12/10 15:06:47;;;;;;;17.65;3.70;;;;;;;;;;4916505;29;20471;-93
2023/12/10 15:09:14;;;;;;;14.02;4.60;;;;;;;;;;4898962;29;20131;-92
2023/12/10 15:11:41;;;;;;;8.15;3.88;;;;;;;;;;4913889;29;20056;-93
2023/12/10 15:14:07;;;;;;;18.20;4.00;;;;;;;;;;4901026;29;20090;-91
2023/12/10 15:16:33;;;;;;;14.95;3.13;;;;;;;;;;4901153;29;20095;-91
2023/12/10 15:19:00;;;;;;;13.68;3.30;;;;;;;;;;4917114;29;20111;-93
2023/12/10 15:21:26;;;;;;;13.52;3.05;;;;;;;;;;4914601;29;20047;-94
2023/12/10 15:23:54;;;;;;;10.52;3.70;;;;;;;;;;4935742;29;20131;-92
2023/12/10 15:26:20;;;;;;;18.20;3.95;;;;;;;;;;4913869;29;20084;-91
2023/12/10 15:28:47;;;;;;;22.38;4.05;;;;;;;;;;4901398;29;20196;-91
2023/12/10 15:31:13;;;;;;;11.93;3.45;;;;;;;;;;4885188;29;20096;-93
2023/12/10 15:33:39;;;;;;;16.15;3.28;;;;;;;;;;4917743;29;20100;-95
2023/12/10 15:36:13;;;;;;;24.48;4.32;;;;;;;;;;4920297;29;20050;-95
2023/12/10 15:38:39;;;;;;;15.65;4.20;;;;;;;;;;4921201;29;20056;-94
2023/12/10 15:41:11;;;;;;;17.05;3.78;;;;;;;;;;4906073;29;20054;-93
2023/12/10 15:43:37;;;;;;;17.80;4.80;;;;;;;;;;4921703;29;20047;-95
2023/12/10 15:46:03;;;;;;;15.80;3.60;;;;;;;;;;4926255;29;20044;-93
2023/12/10 15:48:29;;;;;;;20.70;4.55;;;;;;;;;;4942902;29;20043;-93
2023/12/10 15:50:55;;;;;;;18.83;4.53;;;;;;;;;;4943096;29;20497;-92
2023/12/10 15:53:21;;;;;;;22.48;5.25;;;;;;;;;;4911193;29;20079;-90
2023/12/10 15:55:48;;;;;;;16.42;3.95;;;;;;;;;;4928678;29;20050;-93
2023/12/10 15:58:14;;;;;;;18.05;4.47;;;;;;;;;;4915848;29;20052;-93
2023/12/10 16:00:40;;;;;;;23.02;4.53;;;;;;;;;;4920190;29;20615;-95
2023/12/10 16:03:08;;;;;;;17.55;4.10;;;;;;;;;;4929878;29;20433;-89
2023/12/10 16:05:40;;;;;;;21.05;4.95;;;;;;;;;;4914265;29;20076;-93
2023/12/10 16:08:06;;;;;;;14.70;4.60;;;;;;;;;;4927844;29;20044;-89
2023/12/10 16:10:33;;;;;;;35.10;6.43;;;;;;;;;;4912881;29;20055;-93
2023/12/10 16:12:59;;;;;;;15.80;5.15;;;;;;;;;;4930311;29;20055;-95
2023/12/10 16:15:25;;;;;;;19.55;4.63;;;;;;;;;;4930566;29;20052;-96
2023/12/10 16:17:51;;;;;;;19.95;5.45;;;;;;;;;;4922970;29;20478;-96
2023/12/10 16:20:17;;;;;;;17.65;3.65;;;;;;;;;;4915755;29;20048;-95
2023/12/10 16:22:46;;;;;;;17.38;4.97;;;;;;;;;;4936731;29;20044;-95
2023/12/10 16:25:13;;;;;;;11.90;3.47;;;;;;;;;;4931029;29;21089;-96
2023/12/10 16:27:39;;;;;;;17.33;4.70;;;;;;;;;;4947258;29;20059;-94
2023/12/10 16:30:05;;;;;;;19.88;4.35;;;;;;;;;;4919268;29;20056;-92
2023/12/10 16:32:31;;;;;;;19.33;3.55;;;;;;;;;;4919892;29;20509;-90
2023/12/10 16:34:57;;;;;;;13.07;3.63;;;;;;;;;;4922405;29;20055;-90
2023/12/10 16:37:24;;;;;;;14.60;4.20;;;;;;;;;;4906332;29;20048;-93
2023/12/10 16:39:50;;;;;;;16.58;4.20;;;;;;;;;;4921829;29;20044;-92
2023/12/10 16:42:16;;;;;;;14.75;4.07;;;;;;;;;;4922966;29;20044;-94
2023/12/10 16:44:42;;;;;;;16.58;4.80;;;;;;;;;;4939347;29;20044;-92
2023/12/10 16:47:09;;;;;;;13.80;4.72;;;;;;;;;;4907797;29;20402;-93
2023/12/10 16:49:35;;;;;;;10.15;4.10;;;;;;;;;;4906813;29;20043;-94
2023/12/10 16:52:01;;;;;;;34.10;6.45;;;;;;;;;;4892305;29;20108;-95
2023/12/10 16:54:27;;;;;;;22.15;4.95;;;;;;;;;;4904189;29;20497;-94
2023/12/10 16:56:53;;;;;;;24.27;6.57;;;;;;;;;;4903493;29;20103;-94
2023/12/10 16:59:20;;;;;;;22.77;4.72;;;;;;;;;;4907452;29;20043;-95
2023/12/10 17:01:46;;;;;;;25.55;5.10;;;;;;;;;;4906253;29;20044;-93
2023/12/10 17:04:12;;;;;;;23.42;5.78;;;;;;;;;;4890595;29;20043;-92
2023/12/10 17:06:38;;;;;;;14.52;4.22;;;;;;;;;;4890546;29;20058;-93
2023/12/10 17:09:04;;;;;;;15.40;4.35;;;;;;;;;;4907771;29;20066;-92
2023/12/10 17:11:30;;;;;;;30.20;4.88;;;;;;;;;;4900010;29;20043;-91
2023/12/10 17:13:56;;;;;;;18.20;5.60;;;;;;;;;;4900517;29;20047;-91
2023/12/10 17:16:23;;;;;;;12.52;5.32;;;;;;;;;;4904763;29;20173;-91